This is the latest recevied weather packets stored in our database for station/object IZ1MEU-13. If no packets are shown the sender has not sent any weather packets the latest 10 day(s).
| Time | Temp. | Humidity | Pressure | Rain* | Wind** | Luminosity | Snow |
|---|---|---|---|---|---|---|---|
| 1777518194 | 11.67° C | 58% | 1022.3 hPa | - | - | - | - |
| 1777516991 | 11.67° C | 57% | 1022.2 hPa | - | - | - | - |
| 1777515788 | 11.67° C | 58% | 1022 hPa | - | - | - | - |
| 1777514584 | 12.22° C | 56% | 1021.6 hPa | - | - | - | - |
| 1777513381 | 12.22° C | 55% | 1021.3 hPa | - | - | - | - |
| 1777512177 | 12.22° C | 57% | 1021.5 hPa | - | - | - | - |
| 1777510974 | 12.78° C | 54% | 1021.4 hPa | - | - | - | - |
| 1777509770 | 12.78° C | 54% | 1021.4 hPa | - | - | - | - |
| 1777508567 | 13.33° C | 54% | 1021.3 hPa | - | - | - | - |
| 1777507363 | 13.33° C | 53% | 1021.1 hPa | - | - | - | - |
| 1777506160 | 13.89° C | 53% | 1021 hPa | - | - | - | - |
| 1777504956 | 14.44° C | 52% | 1020.9 hPa | - | - | - | - |
| 1777503752 | 14.44° C | 51% | 1020.7 hPa | - | - | - | - |
| 1777502548 | 14.44° C | 51% | 1020.5 hPa | - | - | - | - |
| 1777501345 | 14.44° C | 51% | 1020.3 hPa | - | - | - | - |
| 1777500141 | 15° C | 50% | 1020.3 hPa | - | - | - | - |
| 1777498937 | 15° C | 49% | 1020.1 hPa | - | - | - | - |
| 1777497733 | 15° C | 49% | 1019.8 hPa | - | - | - | - |
| 1777496529 | 14.44° C | 50% | 1019.6 hPa | - | - | - | - |
| 1777495325 | 14.44° C | 50% | 1019.5 hPa | - | - | - | - |
| 1777494121 | 14.44° C | 50% | 1019.4 hPa | - | - | - | - |
| 1777492917 | 15° C | 49% | 1019.3 hPa | - | - | - | - |
| 1777491713 | 15° C | 48% | 1019.2 hPa | - | - | - | - |
| 1777490509 | 15° C | 48% | 1018.9 hPa | - | - | - | - |
| 1777489304 | 15.56° C | 47% | 1018.7 hPa | - | - | - | - |
* Rain since midnight (hover to see other rain measurements)
** Current wind speed in m/s (hover to see current wind gust speed)